Aérodrome :
LOGIN :

S'inscrire | Disclaimer

   EN    FR    IT 

 










Légende :    VFR   VFR Marginal   IFR   IFR Intensif   IFR Très Intensif
Visi : 
Plafond : 
>= 8 km
>= 3000ft
5 à 8 km
1000 à 3000 ft
1500m à 5 km
500 à 1000 ft
800 à 1500m
200 à 500 ft
< 800m
< 200 ft
Symboles :   Orages  Brouillard  Fortes neiges  Fortes précipitations  Vent > 20 kt
SIGMETs :   Divers  Orages  Givrage  Turbulence  Onde Orograph.  Cendres Volcan.






- Altitude de l'aérodrome : 399 ft
- Code IATA : KIV


LUKK - Chisinau Int.

DERNIER METAR :
  • 071400Z 08010KT CAVOK 18/M07 Q1033 R08/CLRD// NOSIG

METARs EXPIRÉS :
  • 071330Z 09009KT 030V120 CAVOK 19/M08 Q1034 R08/CLRD// NOSIG
  • 071300Z VRB04KT CAVOK 18/M09 Q1034 R08/CLRD// NOSIG
  • 071230Z 10008KT 030V150 CAVOK 18/M09 Q1034 R08/D NOSIG
  • 071200Z 09010KT 050V160 CAVOK 18/M09 Q1034 R08/CLRD// NOSIG
  • 071130Z 07011KT 030V120 CAVOK 18/M09 Q1035 R08/CLRD// NOSIG

TAF TAF LUKK
Valide du 07 à 12h jusqu'au 08 à 12h UTC


071120Z 0712/0812 10008KT CAVOK
BECMG 0718/0720 VRB04KT



MET'MAP, la Météo Aéronautique d'un coup d'oeil ! - Copyright ORBIFLY Décembre 2007 - Disclaimer

ORBIFLY MET'MAP TEAM :

Programmation & Développement : Alexandra Zaïnal
Sur une idée originale de : Baudouin d'Aumeries
Assistance à la programmation : Marc-Olivier Méhu
Soutien technique & logistique : Manuel Goepfert

Contact : metmap@orbifly.com




SOURCES & CREDITS :

   NOAA